Time;durP1;ratioP1;P1;durP2;ratioP2;P2;SDS_P1;SDS_P2;PMS_P1;PMS_P2;Temp;Humidity;BMP_temperature;BMP_pressure;BME280_temperature;BME280_humidity;BME280_pressure;Samples;Min_cycle;Max_cycle;Signal;HPM_P1;HPM_P2
2021/12/04 00:00:17;;;;;;;;;10.00;7.00;;;;;9.66;100.00;99015.25;5075429;27;45981;-64
2021/12/04 00:02:42;;;;;;;;;10.00;9.00;;;;;9.70;100.00;99008.00;5078879;27;45214;-66
2021/12/04 00:05:08;;;;;;;;;5.75;5.75;;;;;9.72;100.00;98995.63;5076677;27;45292;-70
2021/12/04 00:07:36;;;;;;;;;9.50;8.00;;;;;9.68;100.00;98981.00;5076366;27;45277;-67
2021/12/04 00:10:03;;;;;;;;;7.00;7.00;;;;;9.76;100.00;98987.47;5077354;27;46038;-63
2021/12/04 00:12:31;;;;;;;;;5.75;5.00;;;;;9.79;100.00;98979.41;5081614;27;45352;-61
2021/12/04 00:14:57;;;;;;;;;4.25;4.25;;;;;9.82;100.00;98978.34;5080863;27;45216;-61
2021/12/04 00:17:22;;;;;;;;;4.00;4.00;;;;;9.78;100.00;98964.59;5077430;27;45440;-62
2021/12/04 00:19:48;;;;;;;;;5.00;4.00;;;;;9.90;100.00;98959.50;5077079;28;47236;-66
2021/12/04 00:22:13;;;;;;;;;9.50;7.00;;;;;9.93;100.00;98959.28;5080295;27;45345;-67
2021/12/04 00:24:39;;;;;;;;;6.00;5.50;;;;;9.98;100.00;98964.25;5081072;28;45240;-66
2021/12/04 00:27:04;;;;;;;;;4.25;4.00;;;;;9.94;100.00;98946.06;5079553;27;45608;-62
2021/12/04 00:29:30;;;;;;;;;4.25;4.25;;;;;10.05;100.00;98958.50;5079340;27;46453;-61
2021/12/04 00:32:00;;;;;;;;;2.75;2.75;;;;;10.06;100.00;98948.84;5080195;27;45367;-58
2021/12/04 00:34:27;;;;;;;;;1.00;1.00;;;;;10.13;100.00;98951.91;5080622;27;45388;-58
2021/12/04 00:37:12;;;;;;;;;1.50;1.00;;;;;10.15;100.00;98936.91;5079030;27;45453;-60
2021/12/04 00:50:34;;;;;;;;;2.00;2.00;;;;;10.37;100.00;98925.84;5078932;28;45521;-58
2021/12/04 00:52:59;;;;;;;;;1.50;1.50;;;;;10.48;100.00;98943.53;5078488;27;45424;-67
2021/12/04 00:55:25;;;;;;;;;1.00;1.00;;;;;10.53;100.00;98941.44;5077540;27;45389;-69
2021/12/04 00:57:50;;;;;;;;;2.00;2.00;;;;;10.57;100.00;98935.03;5078732;27;45342;-71
2021/12/04 01:00:16;;;;;;;;;2.00;1.00;;;;;10.63;100.00;98936.44;5078626;27;45428;-64
2021/12/04 01:02:42;;;;;;;;;1.00;0.00;;;;;10.68;100.00;98938.78;5078535;27;45257;-70
2021/12/04 01:05:09;;;;;;;;;1.00;1.00;;;;;10.73;100.00;98928.78;5079327;27;45377;-59
2021/12/04 01:07:35;;;;;;;;;0.00;0.00;;;;;10.77;100.00;98925.81;5077947;28;45288;-67
2021/12/04 01:10:03;;;;;;;;;1.25;1.00;;;;;10.80;100.00;98919.53;5078441;27;46681;-62
2021/12/04 01:12:28;;;;;;;;;0.50;0.00;;;;;10.88;100.00;98937.41;5078988;27;45448;-65
2021/12/04 01:14:54;;;;;;;;;0.00;0.00;;;;;10.90;100.00;98931.09;5078187;27;45304;-60
2021/12/04 01:17:19;;;;;;;;;1.25;0.00;;;;;10.96;100.00;98935.09;5078578;27;45334;-62
2021/12/04 01:19:44;;;;;;;;;0.00;0.00;;;;;11.00;100.00;98927.84;5078317;27;46174;-64
2021/12/04 01:22:10;;;;;;;;;3.25;2.00;;;;;11.04;100.00;98926.69;5077222;27;45469;-61
2021/12/04 01:24:35;;;;;;;;;0.25;0.25;;;;;11.07;100.00;98937.00;5080396;27;45386;-69
2021/12/04 01:27:01;;;;;;;;;1.00;1.00;;;;;11.09;100.00;98932.47;5080420;27;45643;-66
2021/12/04 01:29:26;;;;;;;;;0.75;0.75;;;;;11.09;100.00;98925.41;5078086;27;46764;-66
2021/12/04 01:31:51;;;;;;;;;0.00;0.00;;;;;11.11;100.00;98933.22;5078045;27;45344;-65
2021/12/04 01:34:17;;;;;;;;;0.00;0.00;;;;;11.13;100.00;98939.22;5078066;27;45308;-63
2021/12/04 01:36:42;;;;;;;;;0.00;0.00;;;;;11.13;100.00;98947.09;5078205;27;45654;-62
2021/12/04 01:39:08;;;;;;;;;0.00;0.00;;;;;11.10;100.00;98936.78;5079157;28;45231;-65
2021/12/04 01:41:34;;;;;;;;;6.50;2.00;;;;;11.13;100.00;98947.09;5085870;27;45261;-63
2021/12/04 01:44:02;;;;;;;;;4.75;4.75;;;;;11.10;100.00;98932.34;5084323;27;45331;-62
2021/12/04 01:46:28;;;;;;;;;0.25;0.25;;;;;11.14;100.00;98947.97;5078456;27;45315;-63
2021/12/04 01:48:54;;;;;;;;;0.00;0.00;;;;;11.07;100.00;98935.19;5080696;27;46728;-67
2021/12/04 01:51:20;;;;;;;;;0.75;0.75;;;;;11.15;100.00;98947.00;5079601;27;45255;-67
2021/12/04 01:53:45;;;;;;;;;0.00;0.00;;;;;11.14;100.00;98943.53;5079131;27;46122;-67
2021/12/04 01:56:11;;;;;;;;;0.75;0.00;;;;;11.14;100.00;98942.69;5077238;28;45329;-58
2021/12/04 01:58:36;;;;;;;;;0.75;0.00;;;;;11.13;100.00;98944.47;5078039;28;45352;-65
2021/12/04 02:01:03;;;;;;;;;2.00;0.25;;;;;11.16;100.00;98946.06;5078940;27;45377;-62
2021/12/04 02:03:28;;;;;;;;;12.25;6.25;;;;;11.17;100.00;98948.56;5082615;28;45215;-61
2021/12/04 02:05:54;;;;;;;;;0.00;0.00;;;;;11.18;100.00;98952.88;5077181;27;45292;-63
2021/12/04 02:08:21;;;;;;;;;0.75;0.75;;;;;11.20;100.00;98950.16;5077563;27;46194;-65
2021/12/04 02:10:50;;;;;;;;;0.00;0.00;;;;;11.21;100.00;98949.22;5077652;27;45357;-63
2021/12/04 02:13:16;;;;;;;;;0.75;0.75;;;;;11.22;100.00;98940.38;5076101;27;45273;-66
2021/12/04 02:15:43;;;;;;;;;0.00;0.00;;;;;11.24;100.00;98946.38;5078209;27;45417;-58
2021/12/04 02:18:09;;;;;;;;;0.00;0.00;;;;;11.24;100.00;98949.00;5080001;28;46158;-61
2021/12/04 02:20:35;;;;;;;;;1.00;1.00;;;;;11.25;100.00;98937.53;5077186;27;45444;-58
2021/12/04 02:23:03;;;;;;;;;2.25;1.00;;;;;11.27;100.00;98945.31;5077156;27;45432;-63
2021/12/04 02:25:29;;;;;;;;;1.00;1.00;;;;;11.29;100.00;98943.41;5077224;27;45444;-66
2021/12/04 02:27:54;;;;;;;;;0.00;0.00;;;;;11.30;100.00;98940.69;5076795;27;46167;-67
2021/12/04 02:30:23;;;;;;;;;1.00;0.00;;;;;11.27;100.00;98937.41;5076912;27;45231;-66
2021/12/04 02:32:50;;;;;;;;;0.00;0.00;;;;;11.32;100.00;98948.47;5075880;27;45318;-66
2021/12/04 02:35:17;;;;;;;;;0.00;0.00;;;;;11.38;100.00;98951.53;5076989;27;45323;-68
2021/12/04 02:37:44;;;;;;;;;0.00;0.00;;;;;11.39;100.00;98953.22;5077199;27;47911;-60
2021/12/04 02:40:13;;;;;;;;;0.75;0.00;;;;;11.39;100.00;98950.56;5075753;28;45388;-66
2021/12/04 02:42:38;;;;;;;;;0.00;0.00;;;;;11.42;100.00;98960.03;5077874;28;45377;-70
2021/12/04 02:45:07;;;;;;;;;0.25;0.00;;;;;11.42;100.00;98948.69;5078204;27;45528;-69
2021/12/04 02:47:33;;;;;;;;;0.00;0.00;;;;;11.45;100.00;98957.19;5076777;27;45891;-64
2021/12/04 02:49:59;;;;;;;;;0.00;0.00;;;;;11.42;100.00;98944.22;5076882;27;45303;-69
2021/12/04 02:52:25;;;;;;;;;0.00;0.00;;;;;11.49;100.00;98956.03;5076980;27;45446;-69
2021/12/04 02:54:52;;;;;;;;;0.00;0.00;;;;;11.50;100.00;98943.72;5076843;27;45532;-70
2021/12/04 02:57:20;;;;;;;;;0.00;0.00;;;;;11.53;100.00;98949.59;5076304;28;45292;-70
2021/12/04 02:59:46;;;;;;;;;0.00;0.00;;;;;11.55;100.00;98952.94;5076656;27;45400;-69
2021/12/04 03:02:22;;;;;;;;;0.50;0.00;;;;;11.57;100.00;98962.53;5077505;27;45279;-70
2021/12/04 03:04:56;;;;;;;;;0.00;0.00;;;;;11.58;100.00;98965.06;5076733;27;45450;-66
2021/12/04 03:07:22;;;;;;;;;0.00;0.00;;;;;11.58;100.00;98962.44;5074962;27;48263;-63
2021/12/04 03:09:48;;;;;;;;;0.00;0.00;;;;;11.61;100.00;98958.75;5077631;27;45456;-62
2021/12/04 03:12:18;;;;;;;;;0.00;0.00;;;;;11.58;100.00;98956.31;5093636;27;45408;-63
2021/12/04 03:14:44;;;;;;;;;0.00;0.00;;;;;11.60;100.00;98954.41;5077310;27;45168;-66
2021/12/04 03:17:09;;;;;;;;;0.25;0.00;;;;;11.59;100.00;98955.38;5076137;27;45577;-64
2021/12/04 03:19:37;;;;;;;;;0.00;0.00;;;;;11.62;100.00;98963.91;5074781;28;45459;-65
2021/12/04 03:22:03;;;;;;;;;0.00;0.00;;;;;11.60;100.00;98954.41;5076250;27;45367;-63
2021/12/04 03:24:30;;;;;;;;;0.00;0.00;;;;;11.57;100.00;98952.84;5078569;27;45358;-68
2021/12/04 03:26:56;;;;;;;;;1.00;0.00;;;;;11.59;100.00;98956.22;5076655;28;46377;-67
2021/12/04 03:29:24;;;;;;;;;0.00;0.00;;;;;11.59;100.00;98960.63;5076174;27;45281;-68
2021/12/04 03:42:37;;;;;;;;;0.00;0.00;;;;;11.58;100.00;98946.66;5080112;27;45401;-61
2021/12/04 03:45:05;;;;;;;;;0.00;0.00;;;;;11.59;100.00;98958.00;5075732;27;45252;-60
2021/12/04 03:47:31;;;;;;;;;0.00;0.00;;;;;11.60;100.00;98957.06;5076076;27;45304;-66
2021/12/04 03:49:57;;;;;;;;;1.00;0.00;;;;;11.59;100.00;98950.97;5076077;28;46031;-62
2021/12/04 03:52:22;;;;;;;;;0.00;0.00;;;;;11.60;100.00;98943.88;5075735;27;45336;-62
2021/12/04 03:54:49;;;;;;;;;0.00;0.00;;;;;11.61;100.00;98956.09;5076024;28;45525;-65
2021/12/04 03:57:15;;;;;;;;;0.00;0.00;;;;;11.60;100.00;98946.53;5074429;28;45529;-64
2021/12/04 03:59:45;;;;;;;;;1.00;0.00;;;;;11.63;100.00;98951.56;5075963;27;45573;-67
2021/12/04 04:02:12;;;;;;;;;0.00;0.00;;;;;11.60;100.00;98941.25;5076556;27;45465;-69
2021/12/04 04:04:38;;;;;;;;;0.00;0.00;;;;;11.57;100.00;98954.63;5076985;27;45599;-66
2021/12/04 04:07:04;;;;;;;;;0.00;0.00;;;;;11.63;100.00;98946.31;5077306;27;46963;-67
2021/12/04 04:09:30;;;;;;;;;0.00;0.00;;;;;11.66;100.00;98949.56;5080755;27;45200;-65
2021/12/04 04:11:57;;;;;;;;;0.00;0.00;;;;;11.66;100.00;98961.88;5076539;27;45294;-69
2021/12/04 04:14:24;;;;;;;;;0.00;0.00;;;;;11.66;100.00;98951.34;5076145;28;45165;-70
2021/12/04 04:16:50;;;;;;;;;0.00;0.00;;;;;11.68;100.00;98952.13;5075696;27;46183;-67
2021/12/04 04:19:15;;;;;;;;;1.00;0.00;;;;;11.65;100.00;98947.03;5076131;27;45342;-68
2021/12/04 04:21:41;;;;;;;;;1.00;0.00;;;;;11.71;100.00;98961.56;5077462;27;45337;-70
2021/12/04 04:24:12;;;;;;;;;0.00;0.00;;;;;11.69;100.00;98952.00;5079073;27;45372;-70
2021/12/04 04:26:38;;;;;;;;;0.25;0.00;;;;;11.68;100.00;98949.47;5079484;27;46236;-67
2021/12/04 04:29:05;;;;;;;;;0.00;0.00;;;;;11.69;100.00;98954.63;5077713;27;45215;-68
2021/12/04 04:31:32;;;;;;;;;2.00;0.00;;;;;11.68;100.00;98945.03;5075203;27;45426;-66
2021/12/04 04:34:02;;;;;;;;;1.00;0.25;;;;;11.71;100.00;98945.78;5075449;27;45341;-69
2021/12/04 04:58:23;;;;;;;;;0.00;0.00;;;;;11.65;100.00;98941.75;5078443;27;45938;-69
2021/12/04 05:01:16;;;;;;;;;0.00;0.00;;;;;11.63;100.00;98936.63;5080152;27;45450;-69
2021/12/04 05:12:19;;;;;;;;;0.00;0.00;;;;;11.59;100.00;98929.03;5079422;28;45271;-64
2021/12/04 05:14:43;;;;;;;;;0.00;0.00;;;;;11.54;100.00;98926.75;5078299;27;45314;-60
2021/12/04 05:19:44;;;;;;;;;0.00;0.00;;;;;11.52;100.00;98929.47;5079061;27;45972;-68
2021/12/04 05:22:12;;;;;;;;;0.00;0.00;;;;;11.50;100.00;98920.00;5078671;27;45455;-68
2021/12/04 05:24:38;;;;;;;;;0.00;0.00;;;;;11.46;100.00;98919.38;5079216;27;45381;-64
2021/12/04 05:27:04;;;;;;;;;0.00;0.00;;;;;11.40;100.00;98918.03;5078134;27;45373;-63
2021/12/04 05:29:30;;;;;;;;;0.00;0.00;;;;;11.39;100.00;98920.75;5078015;27;46002;-68
2021/12/04 05:31:56;;;;;;;;;0.00;0.00;;;;;11.42;100.00;98927.63;5094622;27;45452;-65
2021/12/04 05:34:23;;;;;;;;;0.00;0.00;;;;;11.42;100.00;98920.53;5094918;27;45436;-69
2021/12/04 05:36:49;;;;;;;;;0.75;0.00;;;;;11.43;100.00;98924.84;5078260;27;45595;-66
2021/12/04 05:39:14;;;;;;;;;0.00;0.00;;;;;11.41;100.00;98921.50;5077976;27;45459;-66
2021/12/04 05:41:40;;;;;;;;;1.00;0.75;;;;;11.43;100.00;98924.84;5078041;27;45301;-65
2021/12/04 05:44:08;;;;;;;;;0.00;0.00;;;;;11.45;100.00;98916.88;5081849;27;45275;-61
2021/12/04 05:46:41;;;;;;;;;0.00;0.00;;;;;11.44;100.00;98923.09;5079090;28;45468;-68
2021/12/04 05:49:26;;;;;;;;;0.00;0.00;;;;;11.38;100.00;98921.72;5078292;27;47237;-70
2021/12/04 05:56:45;;;;;;;;;0.00;0.00;;;;;11.36;100.00;98935.00;5078149;27;45334;-68
2021/12/04 05:59:11;;;;;;;;;0.00;0.00;;;;;11.36;100.00;98931.50;5077852;27;46206;-67
2021/12/04 06:01:36;;;;;;;;;0.00;0.00;;;;;11.33;100.00;98927.31;5077584;27;45338;-67
2021/12/04 06:04:02;;;;;;;;;0.00;0.00;;;;;11.32;100.00;98928.25;5077615;27;45620;-68
2021/12/04 06:06:28;;;;;;;;;0.00;0.00;;;;;11.32;100.00;98932.66;5077601;27;45319;-69
2021/12/04 06:08:53;;;;;;;;;0.00;0.00;;;;;11.30;100.00;98927.53;5079144;28;45360;-57
2021/12/04 06:11:19;;;;;;;;;0.00;0.00;;;;;11.31;100.00;98923.09;5079011;28;46073;-66
2021/12/04 06:13:44;;;;;;;;;0.00;0.00;;;;;11.28;100.00;98924.16;5077786;27;45298;-70
2021/12/04 06:16:10;;;;;;;;;0.00;0.00;;;;;11.29;100.00;98924.97;5077749;27;45496;-69
2021/12/04 06:18:36;;;;;;;;;0.00;0.00;;;;;11.29;100.00;98936.38;5077466;27;46503;-68
2021/12/04 06:23:45;;;;;;;;;0.50;0.00;;;;;11.29;100.00;98922.34;5077496;28;45244;-63
2021/12/04 06:26:11;;;;;;;;;0.00;0.00;;;;;11.24;100.00;98913.00;5077402;27;45571;-67
2021/12/04 06:28:37;;;;;;;;;0.00;0.00;;;;;11.24;100.00;98913.00;5080277;28;45988;-69
2021/12/04 06:31:04;;;;;;;;;0.00;0.00;;;;;11.21;100.00;98918.47;5082014;27;45332;-69
2021/12/04 06:33:29;;;;;;;;;0.00;0.00;;;;;11.22;100.00;98908.78;5080589;27;45366;-65
2021/12/04 06:35:55;;;;;;;;;0.00;0.00;;;;;11.21;100.00;98905.31;5079004;28;45279;-62
2021/12/04 06:38:20;;;;;;;;;3.25;2.00;;;;;11.22;100.00;98901.72;5077707;27;46459;-68
2021/12/04 06:40:47;;;;;;;;;0.00;0.00;;;;;11.21;100.00;98894.78;5093086;27;46167;-70
2021/12/04 06:43:13;;;;;;;;;0.50;0.00;;;;;11.23;100.00;98897.31;5077207;27;45350;-67
2021/12/04 06:45:42;;;;;;;;;0.00;0.00;;;;;11.25;100.00;98895.41;5077189;27;45303;-69
2021/12/04 06:48:15;;;;;;;;;0.00;0.00;;;;;11.28;100.00;98892.56;5076597;27;46663;-64
2021/12/04 06:50:45;;;;;;;;;0.00;0.00;;;;;11.27;100.00;98890.03;5076532;27;45381;-64
2021/12/04 06:53:27;;;;;;;;;0.75;0.75;;;;;11.33;100.00;98898.34;5076572;27;45366;-65
2021/12/04 06:55:54;;;;;;;;;0.00;0.00;;;;;11.36;100.00;98897.28;5076998;27;45474;-67
2021/12/04 06:58:21;;;;;;;;;2.00;0.00;;;;;11.38;100.00;98892.75;5077093;27;45440;-68
2021/12/04 07:00:48;;;;;;;;;0.00;0.00;;;;;11.39;100.00;98891.78;5077371;27;45314;-65
2021/12/04 07:03:13;;;;;;;;;2.00;0.00;;;;;11.41;100.00;98887.25;5076658;28;45434;-63
2021/12/04 07:05:38;;;;;;;;;0.00;0.00;;;;;11.44;100.00;98886.22;5076639;27;45492;-69
2021/12/04 07:08:05;;;;;;;;;0.50;0.00;;;;;11.48;100.00;98880.63;5076536;27;46261;-66
2021/12/04 07:10:32;;;;;;;;;1.00;1.00;;;;;11.49;100.00;98878.84;5076417;27;45381;-68
2021/12/04 07:12:57;;;;;;;;;1.00;1.00;;;;;11.49;100.00;98877.03;5076629;27;45411;-68
2021/12/04 07:15:26;;;;;;;;;0.00;0.00;;;;;11.51;100.00;98883.03;5077299;27;45562;-68
2021/12/04 07:17:52;;;;;;;;;1.00;1.00;;;;;11.51;100.00;98874.31;5075512;27;47204;-66
2021/12/04 07:20:17;;;;;;;;;1.00;1.00;;;;;11.51;100.00;98872.50;5076616;27;45387;-66
2021/12/04 07:22:42;;;;;;;;;0.00;0.00;;;;;11.51;100.00;98876.94;5077509;27;45326;-64
2021/12/04 07:25:08;;;;;;;;;0.25;0.25;;;;;11.47;100.00;98871.03;5077844;27;45441;-68
2021/12/04 07:27:33;;;;;;;;;0.00;0.00;;;;;11.48;100.00;98869.25;5077208;27;45421;-65
2021/12/04 07:30:00;;;;;;;;;0.50;0.50;;;;;11.47;100.00;98868.41;5076406;27;45245;-67
2021/12/04 07:32:25;;;;;;;;;1.25;1.25;;;;;11.45;100.00;98865.03;5076956;28;45244;-67
2021/12/04 07:34:53;;;;;;;;;1.25;1.00;;;;;11.42;100.00;98862.63;5076211;27;45218;-64
2021/12/04 07:37:18;;;;;;;;;1.75;1.75;;;;;11.36;100.00;98848.13;5075770;27;46080;-63
2021/12/04 07:39:43;;;;;;;;;1.50;1.50;;;;;11.43;100.00;98872.19;5075647;28;45250;-59
2021/12/04 07:42:09;;;;;;;;;4.50;3.50;;;;;11.43;100.00;98872.19;5075715;27;45227;-61
2021/12/04 07:44:34;;;;;;;;;4.00;1.00;;;;;11.42;100.00;98867.06;5076110;27;45218;-60
2021/12/04 07:47:00;;;;;;;;;0.75;0.75;;;;;11.41;100.00;98868.84;5076388;27;46326;-62
2021/12/04 07:49:26;;;;;;;;;2.75;1.75;;;;;11.39;100.00;98878.63;5075932;27;45934;-62
2021/12/04 07:51:51;;;;;;;;;2.00;2.00;;;;;11.25;100.00;98840.16;5076111;27;45271;-64
2021/12/04 07:54:18;;;;;;;;;3.00;1.00;;;;;11.37;100.00;98870.88;5077073;27;45421;-63
2021/12/04 07:56:43;;;;;;;;;1.75;1.75;;;;;11.35;100.00;98877.16;5076590;27;46097;-67
2021/12/04 07:59:09;;;;;;;;;1.50;1.00;;;;;11.27;100.00;98872.47;5076233;28;45452;-68
2021/12/04 08:01:35;;;;;;;;;3.00;2.00;;;;;11.32;100.00;98870.34;5091562;27;45288;-66
2021/12/04 08:04:00;;;;;;;;;1.00;1.00;;;;;11.36;100.00;98882.34;5075683;28;45547;-67
2021/12/04 08:06:26;;;;;;;;;0.50;0.50;;;;;11.38;100.00;98885.72;5075781;27;47031;-68
2021/12/04 08:08:53;;;;;;;;;2.50;2.50;;;;;11.39;100.00;98890.03;5076527;28;45312;-71
2021/12/04 08:11:19;;;;;;;;;1.00;1.00;;;;;11.37;100.00;98886.66;5076135;27;45332;-70
2021/12/04 08:13:47;;;;;;;;;0.50;0.50;;;;;11.37;100.00;98886.66;5074934;27;45557;-70
2021/12/04 08:16:13;;;;;;;;;3.00;2.75;;;;;11.36;100.00;98892.88;5075748;28;45405;-70
2021/12/04 08:18:38;;;;;;;;;3.00;2.00;;;;;11.34;100.00;98892.13;5078291;27;45321;-69
2021/12/04 08:21:03;;;;;;;;;1.25;0.75;;;;;11.32;100.00;98904.56;5076628;27;45342;-69
2021/12/04 08:23:29;;;;;;;;;1.50;1.50;;;;;11.29;100.00;98898.66;5075860;27;45546;-61
2021/12/04 08:25:56;;;;;;;;;1.50;1.50;;;;;11.22;100.00;98891.19;5075997;27;45485;-70
2021/12/04 08:28:21;;;;;;;;;0.75;0.75;;;;;11.02;100.00;98873.34;5090864;27;45319;-70
2021/12/04 08:30:47;;;;;;;;;1.50;1.50;;;;;11.17;100.00;98906.47;5077206;27;45245;-68
2021/12/04 08:33:13;;;;;;;;;2.50;0.00;;;;;11.13;100.00;98904.16;5079510;27;45647;-71
2021/12/04 08:35:39;;;;;;;;;1.50;0.00;;;;;11.02;100.00;98899.66;5078842;27;47193;-70
2021/12/04 08:38:07;;;;;;;;;0.50;0.50;;;;;10.98;100.00;98920.03;5079216;27;45528;-68
2021/12/04 08:40:33;;;;;;;;;0.25;0.25;;;;;10.97;100.00;98907.84;5079336;27;45321;-68
2021/12/04 08:42:59;;;;;;;;;1.50;0.00;;;;;10.94;100.00;98911.53;5080221;27;45389;-68
2021/12/04 08:45:25;;;;;;;;;1.50;0.00;;;;;10.93;100.00;98930.91;5083199;27;46311;-68
2021/12/04 08:47:52;;;;;;;;;0.00;0.00;;;;;10.93;100.00;98927.41;5079380;27;45199;-70
2021/12/04 08:50:21;;;;;;;;;0.25;0.25;;;;;10.90;100.00;98923.22;5079571;27;45389;-69
2021/12/04 08:52:46;;;;;;;;;0.25;0.25;;;;;10.88;100.00;98930.38;5080373;27;45539;-65
2021/12/04 08:55:13;;;;;;;;;0.00;0.00;;;;;10.87;100.00;98933.94;5079764;27;46085;-70
2021/12/04 08:57:38;;;;;;;;;0.00;0.00;;;;;10.90;100.00;98941.63;5081265;27;45357;-68
2021/12/04 09:00:11;;;;;;;;;0.00;0.00;;;;;10.92;100.00;98954.66;5082346;28;45333;-73
2021/12/04 09:02:38;;;;;;;;;0.00;0.00;;;;;10.92;100.00;98967.81;5080350;27;45321;-64
2021/12/04 09:05:05;;;;;;;;;0.00;0.00;;;;;10.95;100.00;98957.09;5077032;27;46376;-67
2021/12/04 09:07:31;;;;;;;;;0.25;0.25;;;;;10.94;100.00;98964.16;5079007;27;45680;-62
2021/12/04 09:09:57;;;;;;;;;0.00;0.00;;;;;10.98;100.00;98966.56;5081272;27;45259;-61
2021/12/04 09:12:25;;;;;;;;;1.00;1.00;;;;;10.99;100.00;98970.88;5081539;27;45229;-60
2021/12/04 09:14:52;;;;;;;;;0.50;0.00;;;;;10.94;100.00;98966.78;5078061;27;45499;-62
2021/12/04 09:17:19;;;;;;;;;0.00;0.00;;;;;10.94;100.00;98979.06;5076536;27;45330;-57
2021/12/04 09:19:45;;;;;;;;;0.25;0.25;;;;;10.92;100.00;98984.47;5078223;27;45335;-59
2021/12/04 09:22:34;;;;;;;;;1.00;0.50;;;;;10.91;100.00;98971.41;5093803;27;45524;-64
2021/12/04 09:24:59;;;;;;;;;1.25;0.50;;;;;10.90;100.00;98980.22;5080465;27;46162;-61
2021/12/04 10:21:40;;;;;;;;;1.25;0.00;;;;;10.90;96.86;99060.00;5077357;28;45351;-63
2021/12/04 10:34:35;;;;;;;;;4.75;2.25;;;;;10.78;98.81;99077.44;5078698;27;45305;-65
2021/12/04 10:37:10;;;;;;;;;0.50;0.50;;;;;10.81;98.23;99090.38;5078099;27;45287;-63
2021/12/04 10:39:36;;;;;;;;;2.25;1.00;;;;;10.80;97.78;99086.06;5077577;27;45294;-64
2021/12/04 10:42:07;;;;;;;;;1.25;1.00;;;;;10.77;98.30;99083.63;5077292;27;45243;-65
2021/12/04 10:44:38;;;;;;;;;0.75;0.75;;;;;10.80;99.41;99095.75;5076949;27;45369;-70
2021/12/04 10:47:07;;;;;;;;;1.25;0.50;;;;;10.81;98.59;99087.75;5075986;28;45479;-69
2021/12/04 10:49:39;;;;;;;;;1.00;0.00;;;;;10.83;97.46;99085.03;5076367;27;46646;-71
2021/12/04 10:52:06;;;;;;;;;0.25;0.25;;;;;10.81;95.90;99095.63;5076426;27;45472;-74
2021/12/04 10:54:40;;;;;;;;;1.00;0.25;;;;;10.87;97.93;99099.66;5077022;27;45899;-74
2021/12/04 10:57:42;;;;;;;;;0.25;0.00;;;;;10.84;96.94;99096.38;5077745;27;45352;-69
2021/12/04 11:02:48;;;;;;;;;2.00;2.00;;;;;10.73;97.15;99111.06;5077693;27;45449;-71
2021/12/04 11:05:48;;;;;;;;;3.50;1.00;;;;;10.73;97.44;99105.81;5075870;27;45426;-67
2021/12/04 11:36:15;;;;;;;;;3.25;3.00;;;;;9.37;100.00;99117.56;5075853;27;45269;-71
2021/12/04 11:38:47;;;;;;;;;2.75;2.75;;;;;9.10;100.00;99136.59;5077301;27;45410;-66
2021/12/04 11:49:32;;;;;;;;;4.50;2.75;;;;;8.41;100.00;99172.69;5072674;27;45443;-70
2021/12/04 11:52:11;;;;;;;;;2.50;1.75;;;;;8.16;100.00;99180.09;5076961;27;45362;-68
2021/12/04 11:54:42;;;;;;;;;2.50;2.50;;;;;8.09;100.00;99183.97;5076351;28;46252;-66
2021/12/04 11:57:10;;;;;;;;;5.00;1.00;;;;;7.97;100.00;99190.69;5075913;28;45334;-68
2021/12/04 11:59:39;;;;;;;;;1.00;1.00;;;;;7.85;100.00;99178.22;5076358;27;45337;-69
2021/12/04 12:02:08;;;;;;;;;2.25;1.00;;;;;7.68;100.00;99192.16;5075287;27;45637;-62
2021/12/04 12:04:45;;;;;;;;;1.25;1.25;;;;;7.60;100.00;99185.53;5091720;27;47369;-66
2021/12/04 12:07:24;;;;;;;;;5.25;4.00;;;;;7.66;100.00;99192.25;5076907;28;45428;-70
2021/12/04 12:10:11;;;;;;;;;4.25;4.00;;;;;7.78;100.00;99200.41;5076157;27;45391;-67
2021/12/04 12:12:41;;;;;;;;;8.00;3.00;;;;;7.88;100.00;99193.78;5092167;27;45315;-69
2021/12/04 12:15:32;;;;;;;;;3.00;2.25;;;;;7.88;100.00;99172.84;5075595;27;45983;-65
2021/12/04 12:18:19;;;;;;;;;5.00;4.00;;;;;8.03;100.00;99194.78;5075121;27;45318;-61
2021/12/04 12:20:53;;;;;;;;;7.50;4.00;;;;;8.12;100.00;99194.28;5075871;27;45488;-69
2021/12/04 12:23:23;;;;;;;;;5.00;5.00;;;;;8.25;100.00;99207.56;5073937;27;45370;-67
2021/12/04 12:26:07;;;;;;;;;5.00;4.25;;;;;8.39;100.00;99216.47;5074545;28;45383;-70
2021/12/04 12:37:24;;;;;;;;;4.25;4.00;;;;;8.80;100.00;99246.66;5075876;28;46228;-69
2021/12/04 12:40:02;;;;;;;;;6.50;3.00;;;;;8.78;100.00;99246.75;5075415;27;45442;-69
2021/12/04 12:42:35;;;;;;;;;6.25;3.00;;;;;8.77;100.00;99269.50;5075323;27;45231;-71
2021/12/04 12:45:20;;;;;;;;;6.25;4.00;;;;;8.82;100.00;99274.50;5076203;27;45389;-70
2021/12/04 12:48:00;;;;;;;;;3.00;3.00;;;;;8.88;100.00;99282.03;5077768;28;46250;-69
2021/12/04 12:50:39;;;;;;;;;6.50;3.00;;;;;9.00;100.00;99279.69;5076772;27;45333;-71
2021/12/04 12:53:06;;;;;;;;;8.25;5.00;;;;;9.06;100.00;99282.84;5075420;28;45368;-70
2021/12/04 12:55:33;;;;;;;;;11.00;5.75;;;;;9.12;100.00;99281.63;5073954;28;45212;-72
2021/12/04 12:58:13;;;;;;;;;2.00;2.00;;;;;9.24;99.24;99287.13;5075209;27;46314;-68
2021/12/04 13:12:13;;;;;;;;;10.50;6.75;;;;;9.06;97.92;99311.69;5075991;28;45319;-68
2021/12/04 13:14:41;;;;;;;;;4.00;4.00;;;;;9.03;97.03;99314.47;5075840;27;45185;-70
2021/12/04 13:17:18;;;;;;;;;5.00;4.00;;;;;8.97;96.19;99300.84;5075666;27;45464;-67
2021/12/04 13:19:48;;;;;;;;;8.75;6.00;;;;;8.93;97.25;99312.41;5094910;27;47457;-65
2021/12/04 13:22:28;;;;;;;;;5.00;4.00;;;;;8.88;96.91;99304.78;5078607;27;45383;-71
2021/12/04 13:24:57;;;;;;;;;7.00;6.00;;;;;8.87;95.97;99297.84;5078726;27;45377;-68
2021/12/04 13:29:53;;;;;;;;;5.75;3.25;;;;;8.92;97.08;99303.69;5077591;27;45425;-66
2021/12/04 13:32:32;;;;;;;;;5.25;3.50;;;;;8.98;97.80;99299.91;5078532;27;45485;-64
2021/12/04 13:35:21;;;;;;;;;6.50;4.00;;;;;9.10;96.63;99301.03;5078609;27;45272;-65
2021/12/04 13:37:54;;;;;;;;;6.00;6.00;;;;;9.23;96.32;99314.31;5079631;27;45465;-64
2021/12/04 13:40:21;;;;;;;;;8.00;4.00;;;;;9.29;95.74;99311.34;5079506;27;45472;-66
2021/12/04 13:42:48;;;;;;;;;3.25;3.00;;;;;9.27;87.34;99310.56;5080540;27;45465;-64
2021/12/04 13:45:17;;;;;;;;;4.50;3.00;;;;;9.23;90.66;99319.53;5081016;28;45433;-69
2021/12/04 13:47:43;;;;;;;;;4.00;3.00;;;;;9.14;90.55;99313.88;5059010;28;45652;-69
2021/12/04 13:52:54;;;;;;;;;7.25;3.00;;;;;8.86;90.18;99291.78;5056322;28;45435;-66
2021/12/04 13:55:20;;;;;;;;;7.50;5.25;;;;;8.88;91.74;99297.78;5056642;28;45382;-67
2021/12/04 13:57:45;;;;;;;;;5.75;4.25;;;;;8.86;93.55;99304.03;5057149;28;45375;-65
2021/12/04 14:00:14;;;;;;;;;3.25;2.00;;;;;8.96;92.46;99304.38;5072920;27;48045;-67
2021/12/04 14:02:40;;;;;;;;;5.75;3.25;;;;;8.95;91.24;99292.22;5058212;28;45320;-63
2021/12/04 14:05:13;;;;;;;;;8.00;5.00;;;;;9.05;93.30;99298.63;5059073;28;45406;-68
2021/12/04 14:07:52;;;;;;;;;5.00;2.50;;;;;9.06;91.02;99302.97;5056100;28;45395;-70
2021/12/04 14:10:21;;;;;;;;;5.75;2.75;;;;;9.04;89.18;99303.06;5056493;28;46189;-61
2021/12/04 14:12:47;;;;;;;;;8.25;4.50;;;;;9.06;91.17;99306.44;5056818;27;45339;-71
2021/12/04 14:15:16;;;;;;;;;2.75;2.75;;;;;9.08;90.58;99308.13;5056681;27;45268;-63
2021/12/04 14:17:42;;;;;;;;;8.25;3.00;;;;;9.11;93.14;99319.28;5057157;28;45559;-68
2021/12/04 14:20:13;;;;;;;;;8.50;4.00;;;;;9.12;92.77;99320.16;5054830;28;47840;-68
2021/12/04 14:22:50;;;;;;;;;5.75;3.75;;;;;9.14;93.88;99329.63;5056611;28;45494;-68
2021/12/04 14:25:17;;;;;;;;;6.00;4.00;;;;;9.04;92.26;99326.66;5057008;28;45411;-67
2021/12/04 14:27:44;;;;;;;;;4.75;4.00;;;;;8.97;91.49;99329.69;5058069;28;45229;-70
2021/12/04 14:30:14;;;;;;;;;5.25;4.00;;;;;8.87;93.22;99339.81;5057192;28;47059;-67
2021/12/04 14:32:42;;;;;;;;;4.75;2.00;;;;;8.74;90.31;99337.84;5057206;28;45429;-69
2021/12/04 14:35:15;;;;;;;;;3.50;3.50;;;;;8.68;88.39;99345.19;5056997;28;45396;-71
2021/12/04 14:37:47;;;;;;;;;4.75;4.50;;;;;8.54;91.66;99341.50;5058749;28;45470;-69
2021/12/04 14:40:17;;;;;;;;;5.00;3.00;;;;;8.57;91.70;99341.34;5072909;28;47061;-71
2021/12/04 14:42:43;;;;;;;;;6.25;3.50;;;;;8.49;91.58;99338.28;5057585;28;45393;-70
2021/12/04 14:45:10;;;;;;;;;14.00;10.00;;;;;8.61;91.84;99360.38;5058497;28;45162;-70